createdAt,value
2023-01-15T00:02:27.701Z,100258.13
2023-01-15T00:04:55.464Z,100251.00
2023-01-15T00:07:23.166Z,100246.56
2023-01-15T00:09:50.935Z,100255.62
2023-01-15T00:12:18.697Z,100249.38
2023-01-15T00:14:46.265Z,100238.56
2023-01-15T00:17:13.720Z,100235.19
2023-01-15T00:19:41.658Z,100243.09
2023-01-15T00:22:09.122Z,100248.19
2023-01-15T00:24:55.345Z,100245.94
2023-01-15T00:27:41.640Z,100239.19
2023-01-15T00:30:13.010Z,100242.50
2023-01-15T00:32:41.926Z,100231.25
2023-01-15T00:35:14.575Z,100234.31
2023-01-15T00:37:43.016Z,100236.41
2023-01-15T00:40:12.421Z,100224.22
2023-01-15T00:42:40.495Z,100218.03
2023-01-15T00:45:11.218Z,100222.63
2023-01-15T00:47:43.933Z,100219.59
2023-01-15T00:50:13.751Z,100221.50
2023-01-15T00:52:41.874Z,100218.81
2023-01-15T00:55:09.469Z,100225.94
2023-01-15T00:57:37.213Z,100231.13
2023-01-15T01:00:05.424Z,100223.53
2023-01-15T01:02:32.944Z,100218.19
2023-01-15T01:05:02.072Z,100225.50
2023-01-15T01:07:31.701Z,100217.16
2023-01-15T01:09:59.262Z,100211.56
2023-01-15T01:12:27.168Z,100211.28
2023-01-15T01:14:55.810Z,100218.00
2023-01-15T01:17:23.447Z,100215.03
2023-01-15T01:19:52.405Z,100213.50
2023-01-15T01:22:19.776Z,100215.12
2023-01-15T01:24:47.315Z,100214.22
2023-01-15T01:27:16.792Z,100216.72
2023-01-15T01:29:44.395Z,100218.19
2023-01-15T01:32:11.885Z,100214.84
2023-01-15T01:34:39.850Z,100211.06
2023-01-15T01:37:07.444Z,100201.56
2023-01-15T01:39:35.282Z,100200.91
2023-01-15T01:42:03.124Z,100202.69
2023-01-15T01:44:33.499Z,100201.34
2023-01-15T01:47:02.934Z,100201.09
2023-01-15T01:49:31.175Z,100198.84
2023-01-15T01:52:13.810Z,100185.72
2023-01-15T01:54:42.127Z,100177.06
2023-01-15T01:57:09.913Z,100170.56
2023-01-15T01:59:38.041Z,100171.34
2023-01-15T02:02:06.277Z,100162.50
2023-01-15T02:04:34.673Z,100155.50
2023-01-15T02:07:03.803Z,100152.25
2023-01-15T02:09:31.189Z,100144.22
2023-01-15T02:12:06.913Z,100150.03
2023-01-15T02:15:04.295Z,100130.72
2023-01-15T02:17:59.238Z,100132.84
2023-01-15T02:20:54.972Z,100122.44
2023-01-15T02:23:53.438Z,100132.28
2023-01-15T02:26:24.189Z,100131.13
2023-01-15T02:28:54.625Z,100124.28
2023-01-15T02:31:34.867Z,100125.84
2023-01-15T02:34:10.957Z,100121.34
2023-01-15T02:36:41.431Z,100116.16
2023-01-15T02:39:13.369Z,100124.66
2023-01-15T02:41:47.995Z,100120.94
2023-01-15T02:44:18.421Z,100118.56
2023-01-15T02:46:47.614Z,100122.66
2023-01-15T02:49:18.755Z,100108.84
2023-01-15T02:52:07.354Z,100109.81
2023-01-15T02:54:40.384Z,100103.56
2023-01-15T02:57:09.843Z,100108.41
2023-01-15T02:59:40.765Z,100101.22
2023-01-15T03:02:16.773Z,100103.78
2023-01-15T03:05:00.097Z,100097.25
2023-01-15T03:07:35.651Z,100094.75
2023-01-15T03:10:05.107Z,100086.06
2023-01-15T03:13:05.014Z,100084.69
2023-01-15T03:16:04.536Z,100086.94
2023-01-15T03:18:37.180Z,100097.66
2023-01-15T03:21:08.791Z,100090.94
2023-01-15T03:23:39.714Z,100080.63
2023-01-15T03:26:07.336Z,100085.69
2023-01-15T03:28:36.879Z,100078.34
2023-01-15T03:31:05.258Z,100072.16
2023-01-15T03:33:34.507Z,100071.97
2023-01-15T03:36:02.977Z,100070.87
2023-01-15T03:38:35.506Z,100079.12
2023-01-15T03:41:06.306Z,100072.94
2023-01-15T03:43:43.451Z,100063.13
2023-01-15T03:46:31.553Z,100068.47
2023-01-15T03:49:07.268Z,100070.84
2023-01-15T03:51:50.258Z,100071.00
2023-01-15T03:54:24.356Z,100077.97
2023-01-15T03:56:55.650Z,100064.28
2023-01-15T03:59:27.439Z,100062.66
2023-01-15T04:01:55.861Z,100055.72
2023-01-15T04:04:25.639Z,100052.00
2023-01-15T04:06:54.842Z,100056.28
2023-01-15T04:09:22.856Z,100065.94
2023-01-15T04:11:52.014Z,100060.91
2023-01-15T04:14:19.810Z,100068.72
2023-01-15T04:16:47.971Z,100060.50
2023-01-15T04:19:15.715Z,100064.97
2023-01-15T04:21:44.827Z,100060.09
2023-01-15T04:24:12.413Z,100059.31
2023-01-15T04:26:40.161Z,100048.97
2023-01-15T04:29:07.956Z,100050.16
2023-01-15T04:31:36.320Z,100044.72
2023-01-15T04:34:04.393Z,100046.75
2023-01-15T04:36:35.407Z,100047.03
2023-01-15T04:39:04.988Z,100038.31
2023-01-15T04:41:51.418Z,100044.37
2023-01-15T04:44:18.865Z,100038.03
2023-01-15T04:46:47.805Z,100040.69
2023-01-15T04:49:16.994Z,100046.03
2023-01-15T04:51:45.037Z,100047.31
2023-01-15T04:54:15.031Z,100037.56
2023-01-15T04:56:45.250Z,100034.16
2023-01-15T04:59:14.349Z,100038.44
2023-01-15T05:01:51.352Z,100040.31
2023-01-15T05:04:26.150Z,100028.06
2023-01-15T05:06:53.673Z,100026.69
2023-01-15T05:09:21.230Z,100034.31
2023-01-15T05:11:50.211Z,100025.12
2023-01-15T05:14:17.643Z,100026.16
2023-01-15T05:16:45.154Z,100032.03
2023-01-15T05:19:13.084Z,100028.41
2023-01-15T05:21:41.978Z,100018.59
2023-01-15T05:24:13.779Z,100017.56
2023-01-15T05:26:41.965Z,100009.25
2023-01-15T05:29:10.705Z,100006.53
2023-01-15T05:31:38.129Z,100010.97
2023-01-15T05:34:06.347Z,99995.47
2023-01-15T05:36:33.785Z,99993.47
2023-01-15T05:39:02.414Z,99989.88
2023-01-15T05:41:49.438Z,99997.91
2023-01-15T05:44:25.411Z,99990.62
2023-01-15T05:46:55.942Z,99990.78
2023-01-15T05:49:26.866Z,99983.66
2023-01-15T05:51:55.252Z,99960.94
2023-01-15T05:54:27.708Z,99975.38
2023-01-15T05:56:56.300Z,99971.41
2023-01-15T05:59:26.540Z,99974.91
2023-01-15T06:01:54.994Z,99959.56
2023-01-15T06:04:23.005Z,99968.19
2023-01-15T06:06:51.744Z,99964.66
2023-01-15T06:09:19.941Z,99955.56
2023-01-15T06:11:47.857Z,99953.50
2023-01-15T06:14:15.753Z,99962.16
2023-01-15T06:16:43.352Z,99949.31
2023-01-15T06:19:11.944Z,99947.41
2023-01-15T06:21:39.968Z,99950.06
2023-01-15T06:24:08.329Z,99959.47
2023-01-15T06:26:36.278Z,99960.78
2023-01-15T06:29:03.680Z,99950.91
2023-01-15T06:31:32.686Z,99960.09
2023-01-15T06:34:00.523Z,99960.16
2023-01-15T06:36:28.523Z,99954.38
2023-01-15T06:38:56.402Z,99959.72
2023-01-15T06:41:45.511Z,99964.44
2023-01-15T06:44:33.670Z,99949.38
2023-01-15T06:47:22.665Z,99947.56
2023-01-15T06:49:55.108Z,99951.09
2023-01-15T06:52:24.557Z,99942.47
2023-01-15T06:54:52.361Z,99941.97
2023-01-15T06:57:20.332Z,99947.66
2023-01-15T06:59:49.503Z,99937.12
2023-01-15T07:02:18.376Z,99932.66
2023-01-15T07:04:47.014Z,99937.66
2023-01-15T07:07:16.322Z,99934.53
2023-01-15T07:09:43.973Z,99931.72
2023-01-15T07:12:11.578Z,99941.25
2023-01-15T07:14:39.714Z,99946.63
2023-01-15T07:17:07.493Z,99945.59
2023-01-15T07:19:36.071Z,99937.66
2023-01-15T07:22:04.833Z,99938.78
2023-01-15T07:24:32.494Z,99938.28
2023-01-15T07:27:01.001Z,99933.09
2023-01-15T07:29:30.706Z,99936.12
2023-01-15T07:31:58.965Z,99931.28
2023-01-15T07:34:26.490Z,99931.41
2023-01-15T07:36:54.192Z,99925.63
2023-01-15T07:39:21.677Z,99925.47
2023-01-15T07:42:07.976Z,99921.31
2023-01-15T07:44:54.538Z,99918.09
2023-01-15T07:47:42.564Z,99918.59
2023-01-15T07:50:16.475Z,99916.72
2023-01-15T07:52:44.057Z,99921.22
2023-01-15T07:55:15.104Z,99912.19
2023-01-15T07:57:42.993Z,99914.59
2023-01-15T08:00:13.536Z,99921.19
2023-01-15T08:02:41.606Z,99914.12
2023-01-15T08:05:09.931Z,99904.50
2023-01-15T08:07:39.286Z,99909.25
2023-01-15T08:10:07.618Z,99892.28
2023-01-15T08:12:57.121Z,99904.94
2023-01-15T08:15:26.036Z,99906.47
2023-01-15T08:17:54.034Z,99908.63
2023-01-15T08:20:24.366Z,99901.91
2023-01-15T08:22:52.246Z,99910.13
2023-01-15T08:25:23.269Z,99903.41
2023-01-15T08:27:51.359Z,99907.91
2023-01-15T08:30:25.222Z,99906.16
2023-01-15T08:32:53.090Z,99903.41
2023-01-15T08:35:20.758Z,99906.38
2023-01-15T08:37:48.198Z,99908.03
2023-01-15T08:40:16.214Z,99904.31
2023-01-15T08:42:43.786Z,99911.09
2023-01-15T08:45:11.764Z,99899.94
2023-01-15T08:47:39.671Z,99897.75
2023-01-15T08:50:08.859Z,99892.91
2023-01-15T08:52:38.147Z,99892.66
2023-01-15T08:55:06.686Z,99897.47
2023-01-15T08:57:34.435Z,99897.88
2023-01-15T09:00:02.106Z,99889.84
2023-01-15T09:02:32.619Z,99891.94
2023-01-15T09:05:00.195Z,99886.13
2023-01-15T09:07:27.748Z,99881.22
2023-01-15T09:09:55.663Z,99882.91
2023-01-15T09:12:24.991Z,99877.41
2023-01-15T09:14:59.343Z,99870.44
2023-01-15T09:17:33.260Z,99867.09
2023-01-15T09:20:01.241Z,99863.09
2023-01-15T09:22:30.997Z,99853.34
2023-01-15T09:24:59.105Z,99850.09
2023-01-15T09:27:28.300Z,99842.19
2023-01-15T09:29:57.159Z,99844.41
2023-01-15T09:32:24.982Z,99842.00
2023-01-15T09:34:52.637Z,99844.03
2023-01-15T09:37:20.242Z,99831.84
2023-01-15T09:39:48.288Z,99825.97
2023-01-15T09:42:43.806Z,99817.19
2023-01-15T09:45:30.955Z,99817.72
2023-01-15T09:48:19.835Z,99811.63
2023-01-15T09:51:03.227Z,99812.78
2023-01-15T09:53:46.195Z,99800.97
2023-01-15T09:56:23.942Z,99803.31
2023-01-15T09:58:52.769Z,99800.97
2023-01-15T10:01:29.609Z,99791.56
2023-01-15T10:04:13.677Z,99783.69
2023-01-15T10:06:55.296Z,99776.28
2023-01-15T10:09:31.404Z,99778.81
2023-01-15T10:12:22.860Z,99766.34
2023-01-15T10:15:02.417Z,99761.69
2023-01-15T10:17:42.299Z,99751.28
2023-01-15T10:20:24.434Z,99739.03
2023-01-15T10:23:29.586Z,99727.66
2023-01-15T10:26:18.898Z,99736.88
2023-01-15T10:29:01.971Z,99739.91
2023-01-15T10:31:50.561Z,99726.31
2023-01-15T10:34:36.750Z,99717.75
2023-01-15T10:37:41.881Z,99710.87
2023-01-15T10:40:19.231Z,99701.97
2023-01-15T10:43:25.679Z,99701.47
2023-01-15T10:45:56.881Z,99695.03
2023-01-15T10:48:26.602Z,99681.09
2023-01-15T10:50:54.384Z,99676.25
2023-01-15T10:53:28.103Z,99677.16
2023-01-15T10:56:05.997Z,99677.97
2023-01-15T10:59:09.445Z,99673.69
2023-01-15T11:01:37.599Z,99659.50
2023-01-15T11:04:05.352Z,99653.91
2023-01-15T11:06:33.216Z,99647.25
2023-01-15T11:09:11.166Z,99635.34
2023-01-15T11:12:00.480Z,99642.75
2023-01-15T11:14:57.217Z,99633.22
2023-01-15T11:17:56.027Z,99624.56
2023-01-15T11:20:33.063Z,99626.16
2023-01-15T11:23:09.575Z,99621.38
2023-01-15T11:25:39.676Z,99609.19
2023-01-15T11:28:09.907Z,99608.16
2023-01-15T11:30:45.276Z,99619.81
2023-01-15T11:33:24.691Z,99602.38
2023-01-15T11:35:58.662Z,99592.09
2023-01-15T11:38:31.259Z,99595.00
2023-01-15T11:41:01.645Z,99583.47
2023-01-15T11:43:49.498Z,99573.84
2023-01-15T11:46:50.363Z,99555.16
2023-01-15T11:49:39.200Z,99560.03
2023-01-15T11:52:10.678Z,99550.63
2023-01-15T11:54:42.664Z,99536.50
2023-01-15T11:57:11.189Z,99524.84
2023-01-15T11:59:38.984Z,99525.62
2023-01-15T12:02:35.996Z,99521.06
2023-01-15T12:05:05.786Z,99505.53
2023-01-15T12:07:38.947Z,99506.37
2023-01-15T12:10:42.047Z,99504.06
2023-01-15T12:13:29.356Z,99497.25
2023-01-15T12:16:14.830Z,99512.16
2023-01-15T12:19:07.277Z,99515.38
2023-01-15T12:21:35.033Z,99515.84
2023-01-15T12:24:17.736Z,99512.25
2023-01-15T12:27:16.890Z,99514.75
2023-01-15T12:29:48.297Z,99503.88
2023-01-15T12:32:38.974Z,99496.53
2023-01-15T12:35:15.267Z,99501.34
2023-01-15T12:37:52.259Z,99501.44
2023-01-15T12:40:30.577Z,99495.53
2023-01-15T12:43:16.971Z,99485.44
2023-01-15T12:45:48.314Z,99488.94
2023-01-15T12:48:26.897Z,99489.94
2023-01-15T12:50:59.667Z,99487.78
2023-01-15T12:53:53.626Z,99481.91
2023-01-15T12:56:45.689Z,99475.00
2023-01-15T12:59:24.695Z,99475.41
2023-01-15T13:02:13.621Z,99473.03
2023-01-15T13:04:47.646Z,99470.56
2023-01-15T13:07:34.816Z,99463.12
2023-01-15T13:10:34.694Z,99471.16
2023-01-15T13:13:25.742Z,99465.31
2023-01-15T13:16:11.994Z,99476.44
2023-01-15T13:19:01.566Z,99475.44
2023-01-15T13:21:31.805Z,99458.06
2023-01-15T13:24:24.353Z,99454.75
2023-01-15T13:27:02.383Z,99453.03
2023-01-15T13:29:29.854Z,99447.28
2023-01-15T13:32:19.085Z,99438.50
2023-01-15T13:34:55.247Z,99436.25
2023-01-15T13:37:32.862Z,99442.50
2023-01-15T13:40:25.689Z,99438.50
2023-01-15T13:42:54.055Z,99436.66
2023-01-15T13:45:28.015Z,99438.66
2023-01-15T13:47:59.087Z,99430.41
2023-01-15T13:50:33.284Z,99432.53
2023-01-15T13:53:15.086Z,99425.81
2023-01-15T13:55:51.700Z,99414.59
2023-01-15T13:58:26.514Z,99414.34
2023-01-15T14:01:08.624Z,99415.56
2023-01-15T14:03:38.302Z,99416.56
2023-01-15T14:06:08.486Z,99419.69
2023-01-15T14:08:44.485Z,99419.47
2023-01-15T14:11:43.452Z,99420.28
2023-01-15T14:14:21.880Z,99409.56
2023-01-15T14:17:26.771Z,99409.88
2023-01-15T14:20:15.653Z,99412.84
2023-01-15T14:23:22.156Z,99419.69
2023-01-15T14:26:11.005Z,99417.69
2023-01-15T14:28:53.892Z,99403.88
2023-01-15T14:31:39.635Z,99405.56
2023-01-15T14:34:17.934Z,99402.72
2023-01-15T14:37:04.538Z,99398.03
2023-01-15T14:39:37.690Z,99400.09
2023-01-15T14:42:26.598Z,99392.38
2023-01-15T14:45:00.465Z,99391.31
2023-01-15T14:47:36.244Z,99394.03
2023-01-15T14:50:27.865Z,99393.72
2023-01-15T14:53:14.439Z,99387.25
2023-01-15T14:55:57.600Z,99393.31
2023-01-15T14:58:40.553Z,99395.72
2023-01-15T15:01:35.200Z,99394.75
2023-01-15T15:04:14.023Z,99388.59
2023-01-15T15:06:55.410Z,99381.97
2023-01-15T15:09:46.067Z,99384.72
2023-01-15T15:12:22.957Z,99382.78
2023-01-15T15:15:24.560Z,99372.38
2023-01-15T15:18:15.624Z,99370.13
2023-01-15T15:21:15.049Z,99372.47
2023-01-15T15:23:55.309Z,99359.50
2023-01-15T15:26:27.451Z,99369.03
2023-01-15T15:29:09.820Z,99357.25
2023-01-15T15:31:43.353Z,99355.78
2023-01-15T15:34:29.209Z,99351.09
2023-01-15T15:37:00.548Z,99341.94
2023-01-15T15:39:36.253Z,99354.81
2023-01-15T15:42:24.306Z,99353.19
2023-01-15T15:45:16.263Z,99348.88
2023-01-15T15:48:02.460Z,99349.31
2023-01-15T15:50:35.163Z,99351.44
2023-01-15T15:53:06.898Z,99356.56
2023-01-15T15:55:39.813Z,99350.47
2023-01-15T15:58:08.493Z,99341.72
2023-01-15T16:00:41.668Z,99348.81
2023-01-15T16:03:19.891Z,99346.37
2023-01-15T16:06:00.609Z,99341.41
2023-01-15T16:08:30.037Z,99341.50
2023-01-15T16:11:02.863Z,99344.81
2023-01-15T16:13:41.418Z,99348.44
2023-01-15T16:16:09.672Z,99345.44
2023-01-15T16:18:41.226Z,99346.00
2023-01-15T16:21:09.513Z,99344.19
2023-01-15T16:23:37.282Z,99347.06
2023-01-15T16:26:22.174Z,99350.09
2023-01-15T16:28:57.751Z,99350.34
2023-01-15T16:31:26.449Z,99344.59
2023-01-15T16:36:25.151Z,99344.87
2023-01-15T16:38:54.072Z,99346.00
2023-01-15T16:41:32.284Z,99344.22
2023-01-15T16:44:03.150Z,99353.50
2023-01-15T16:46:33.015Z,99340.09
2023-01-15T16:49:23.924Z,99341.62
2023-01-15T16:51:59.097Z,99344.19
2023-01-15T16:54:29.707Z,99339.38
2023-01-15T16:57:01.158Z,99342.22
2023-01-15T16:59:29.025Z,99333.34
2023-01-15T17:02:12.373Z,99334.09
2023-01-15T17:04:44.740Z,99338.22
2023-01-15T17:07:37.118Z,99339.53
2023-01-15T17:10:06.827Z,99327.00
2023-01-15T17:12:38.523Z,99333.25
2023-01-15T17:15:15.259Z,99331.81
2023-01-15T17:17:47.835Z,99331.81
2023-01-15T17:20:16.348Z,99330.13
2023-01-15T17:22:45.971Z,99319.72
2023-01-15T17:25:33.399Z,99316.91
2023-01-15T17:28:04.395Z,99323.09
2023-01-15T17:30:33.083Z,99324.28
2023-01-15T17:33:02.309Z,99320.16
2023-01-15T17:35:35.632Z,99317.41
2023-01-15T17:38:04.882Z,99317.16
2023-01-15T17:40:32.885Z,99318.91
2023-01-15T17:43:00.490Z,99321.19
2023-01-15T17:45:30.426Z,99311.12
2023-01-15T17:47:58.212Z,99319.00
2023-01-15T17:50:25.890Z,99325.25
2023-01-15T17:52:53.608Z,99326.53
2023-01-15T17:55:41.400Z,99316.66
2023-01-15T17:58:32.142Z,99319.97
2023-01-15T18:01:19.358Z,99319.62
2023-01-15T18:04:08.794Z,99323.28
2023-01-15T18:06:36.442Z,99313.31
2023-01-15T18:09:06.247Z,99319.09
2023-01-15T18:11:33.779Z,99321.72
2023-01-15T18:14:01.188Z,99315.13
2023-01-15T18:16:29.522Z,99321.84
2023-01-15T18:18:57.081Z,99317.13
2023-01-15T18:21:24.698Z,99311.00
2023-01-15T18:23:52.913Z,99316.72
2023-01-15T18:26:20.438Z,99321.53
2023-01-15T18:28:48.674Z,99327.50
2023-01-15T18:31:16.517Z,99339.09
2023-01-15T18:33:43.941Z,99320.47
2023-01-15T18:36:13.385Z,99329.53
2023-01-15T18:38:47.401Z,99333.03
2023-01-15T18:41:35.487Z,99320.25
2023-01-15T18:44:31.927Z,99330.41
2023-01-15T18:47:02.334Z,99334.72
2023-01-15T18:49:30.895Z,99330.41
2023-01-15T18:52:17.021Z,99334.31
2023-01-15T18:54:44.924Z,99334.69
2023-01-15T18:57:12.745Z,99333.47
2023-01-15T18:59:40.304Z,99333.03
2023-01-15T19:02:09.829Z,99336.13
2023-01-15T19:04:38.262Z,99332.84
2023-01-15T19:07:05.964Z,99336.75
2023-01-15T19:09:35.842Z,99337.69
2023-01-15T19:12:05.404Z,99332.81
2023-01-15T19:14:52.608Z,99334.41
2023-01-15T19:17:42.174Z,99329.59
2023-01-15T19:20:12.733Z,99330.84
2023-01-15T19:22:58.713Z,99331.47
2023-01-15T19:25:40.746Z,99342.75
2023-01-15T19:28:11.414Z,99345.66
2023-01-15T19:30:39.859Z,99352.25
2023-01-15T19:33:08.533Z,99353.09
2023-01-15T19:35:38.754Z,99353.00
2023-01-15T19:38:08.640Z,99340.00
2023-01-15T19:40:40.406Z,99335.94
2023-01-15T19:43:29.189Z,99336.47
2023-01-15T19:46:20.297Z,99319.91
2023-01-15T19:49:09.503Z,99324.75
2023-01-15T19:51:55.655Z,99315.16
2023-01-15T19:54:43.430Z,99310.94
2023-01-15T19:57:11.272Z,99312.50
2023-01-15T19:59:38.978Z,99324.94
2023-01-15T20:02:07.449Z,99324.72
2023-01-15T20:04:36.666Z,99335.22
2023-01-15T20:07:04.097Z,99330.34
2023-01-15T20:09:31.696Z,99330.41
2023-01-15T20:12:20.099Z,99332.31
2023-01-15T20:14:50.416Z,99341.31
2023-01-15T20:17:18.778Z,99337.41
2023-01-15T20:19:47.304Z,99330.22
2023-01-15T20:22:15.292Z,99327.94
2023-01-15T20:24:44.450Z,99325.19
2023-01-15T20:27:13.871Z,99332.78
2023-01-15T20:29:43.621Z,99348.81
2023-01-15T20:32:11.685Z,99348.28
2023-01-15T20:34:40.043Z,99343.19
2023-01-15T20:37:08.025Z,99349.22
2023-01-15T20:39:36.143Z,99343.75
2023-01-15T20:42:22.368Z,99339.13
2023-01-15T20:44:53.200Z,99348.19
2023-01-15T20:47:47.400Z,99341.41
2023-01-15T20:50:16.993Z,99345.25
2023-01-15T20:52:49.420Z,99343.31
2023-01-15T20:55:18.030Z,99352.00
2023-01-15T20:57:45.976Z,99338.06
2023-01-15T21:00:19.211Z,99341.47
2023-01-15T21:02:47.585Z,99344.25
2023-01-15T21:05:15.441Z,99337.50
2023-01-15T21:07:42.864Z,99346.91
2023-01-15T21:10:12.494Z,99344.69
2023-01-15T21:12:40.111Z,99329.66
2023-01-15T21:15:07.894Z,99325.53
2023-01-15T21:17:37.585Z,99325.38
2023-01-15T21:20:07.574Z,99322.44
2023-01-15T21:22:35.424Z,99317.94
2023-01-15T21:25:04.524Z,99328.66
2023-01-15T21:27:33.271Z,99321.25
2023-01-15T21:30:00.827Z,99325.88
2023-01-15T21:32:28.863Z,99325.88
2023-01-15T21:34:56.367Z,99328.22
2023-01-15T21:37:23.772Z,99328.44
2023-01-15T21:39:51.615Z,99331.09
2023-01-15T21:42:39.406Z,99320.34
2023-01-15T21:45:08.172Z,99311.78
2023-01-15T21:47:39.029Z,99297.19
2023-01-15T21:50:07.175Z,99295.25
2023-01-15T21:52:34.748Z,99298.97
2023-01-15T21:55:02.426Z,99301.47
2023-01-15T21:57:30.560Z,99302.75
2023-01-15T21:59:57.932Z,99302.59
2023-01-15T22:02:25.570Z,99305.03
2023-01-15T22:04:53.417Z,99306.87
2023-01-15T22:07:21.273Z,99308.56
2023-01-15T22:09:49.137Z,99309.72
2023-01-15T22:12:18.870Z,99297.91
2023-01-15T22:14:46.342Z,99298.19
2023-01-15T22:17:13.886Z,99294.31
2023-01-15T22:19:41.766Z,99285.47
2023-01-15T22:22:10.893Z,99292.31
2023-01-15T22:24:39.841Z,99299.50
2023-01-15T22:27:09.275Z,99298.84
2023-01-15T22:29:39.295Z,99293.59
2023-01-15T22:32:08.755Z,99311.38
2023-01-15T22:34:36.643Z,99302.84
2023-01-15T22:37:04.221Z,99305.34
2023-01-15T22:39:32.108Z,99300.16
2023-01-15T22:42:18.216Z,99307.97
2023-01-15T22:44:48.554Z,99311.59
2023-01-15T22:47:17.451Z,99307.16
2023-01-15T22:49:45.604Z,99312.72
2023-01-15T22:52:13.570Z,99314.47
2023-01-15T22:54:44.697Z,99318.28
2023-01-15T22:57:13.365Z,99326.69
2023-01-15T22:59:40.793Z,99329.41
2023-01-15T23:02:08.955Z,99328.66
2023-01-15T23:04:36.883Z,99319.72
2023-01-15T23:07:04.404Z,99313.59
2023-01-15T23:09:31.823Z,99310.41
2023-01-15T23:11:59.624Z,99309.44
2023-01-15T23:14:27.278Z,99306.81
2023-01-15T23:16:54.690Z,99302.09
2023-01-15T23:19:22.869Z,99291.00
2023-01-15T23:21:50.246Z,99283.91
2023-01-15T23:24:17.943Z,99277.19
2023-01-15T23:26:46.114Z,99256.09
2023-01-15T23:29:14.085Z,99251.84
2023-01-15T23:31:41.554Z,99261.69
2023-01-15T23:34:10.645Z,99290.19
2023-01-15T23:36:38.625Z,99296.62
2023-01-15T23:39:06.554Z,99289.75
2023-01-15T23:41:52.936Z,99286.84
2023-01-15T23:44:39.427Z,99277.31
2023-01-15T23:47:08.061Z,99281.50
2023-01-15T23:49:35.631Z,99274.19
2023-01-15T23:52:03.737Z,99272.34
2023-01-15T23:54:31.710Z,99277.78
2023-01-15T23:57:00.944Z,99268.97
2023-01-15T23:59:29.173Z,99264.56
